sensor_id;sensor_type;location;lat;lon;timestamp;pressure;altitude;pressure_sealevel;temperature;humidity
67517;BME280;68821;59.134;37.894;2023-05-23T00:01:03;100719.63;;;15.26;67.78
67517;BME280;68821;59.134;37.894;2023-05-23T00:03:32;100717.00;;;15.23;68.17
67517;BME280;68821;59.134;37.894;2023-05-23T00:06:00;100713.53;;;15.19;68.08
67517;BME280;68821;59.134;37.894;2023-05-23T00:08:27;100717.00;;;15.18;68.38
67517;BME280;68821;59.134;37.894;2023-05-23T00:10:53;100713.53;;;15.15;68.53
67517;BME280;68821;59.134;37.894;2023-05-23T00:13:20;100708.34;;;15.10;68.26
67517;BME280;68821;59.134;37.894;2023-05-23T00:15:46;100717.81;;;15.06;68.52
67517;BME280;68821;59.134;37.894;2023-05-23T00:18:13;100714.38;;;15.01;68.35
67517;BME280;68821;59.134;37.894;2023-05-23T00:20:40;100716.09;;;14.99;68.85
67517;BME280;68821;59.134;37.894;2023-05-23T00:23:11;100732.44;;;14.94;68.94
67517;BME280;68821;59.134;37.894;2023-05-23T00:25:44;100719.47;;;14.91;68.82
67517;BME280;68821;59.134;37.894;2023-05-23T00:28:13;100726.38;;;14.88;69.40
67517;BME280;68821;59.134;37.894;2023-05-23T00:30:41;100719.47;;;14.83;69.36
67517;BME280;68821;59.134;37.894;2023-05-23T00:33:07;100728.03;;;14.80;69.35
67517;BME280;68821;59.134;37.894;2023-05-23T00:35:34;100712.50;;;14.73;69.54
67517;BME280;68821;59.134;37.894;2023-05-23T00:38:00;100727.19;;;14.75;69.35
67517;BME280;68821;59.134;37.894;2023-05-23T00:40:27;100727.16;;;14.72;69.79
67517;BME280;68821;59.134;37.894;2023-05-23T00:42:53;100717.63;;;14.65;70.20
67517;BME280;68821;59.134;37.894;2023-05-23T00:45:19;100722.81;;;14.65;69.75
67517;BME280;68821;59.134;37.894;2023-05-23T00:47:46;100722.78;;;14.63;69.97
67517;BME280;68821;59.134;37.894;2023-05-23T00:50:14;100724.53;;;14.63;70.09
67517;BME280;68821;59.134;37.894;2023-05-23T00:52:42;100726.25;;;14.62;70.48
67517;BME280;68821;59.134;37.894;2023-05-23T00:55:09;100721.91;;;14.61;69.97
67517;BME280;68821;59.134;37.894;2023-05-23T00:57:36;100715.88;;;14.56;70.44
67517;BME280;68821;59.134;37.894;2023-05-23T01:00:07;100714.09;;;14.52;70.45
67517;BME280;68821;59.134;37.894;2023-05-23T01:02:41;100715.78;;;14.48;70.78
67517;BME280;68821;59.134;37.894;2023-05-23T01:05:12;100712.28;;;14.45;70.91
67517;BME280;68821;59.134;37.894;2023-05-23T01:07:39;100714.00;;;14.43;70.64
67517;BME280;68821;59.134;37.894;2023-05-23T01:10:07;100708.84;;;14.43;71.28
67517;BME280;68821;59.134;37.894;2023-05-23T01:15:15;100700.19;;;14.41;71.17
67517;BME280;68821;59.134;37.894;2023-05-23T01:18:01;100704.53;;;14.42;71.56
67517;BME280;68821;59.134;37.894;2023-05-23T01:20:43;100698.47;;;14.43;71.22
67517;BME280;68821;59.134;37.894;2023-05-23T01:28:34;100698.50;;;14.44;71.65
67517;BME280;68821;59.134;37.894;2023-05-23T01:31:02;100694.16;;;14.43;70.89
67517;BME280;68821;59.134;37.894;2023-05-23T01:33:31;100693.34;;;14.46;71.42
67517;BME280;68821;59.134;37.894;2023-05-23T01:36:00;100691.63;;;14.46;71.36
67517;BME280;68821;59.134;37.894;2023-05-23T01:38:28;100679.53;;;14.42;71.63
67517;BME280;68821;59.134;37.894;2023-05-23T01:40:54;100685.56;;;14.47;71.75
67517;BME280;68821;59.134;37.894;2023-05-23T01:43:21;100684.72;;;14.48;71.48
67517;BME280;68821;59.134;37.894;2023-05-23T01:45:48;100677.81;;;14.49;71.75
67517;BME280;68821;59.134;37.894;2023-05-23T01:48:14;100677.81;;;14.49;71.25
67517;BME280;68821;59.134;37.894;2023-05-23T01:50:42;100680.44;;;14.51;71.09
67517;BME280;68821;59.134;37.894;2023-05-23T01:53:11;100682.16;;;14.50;71.14
67517;BME280;68821;59.134;37.894;2023-05-23T01:55:39;100695.09;;;14.50;71.56
67517;BME280;68821;59.134;37.894;2023-05-23T01:58:06;100684.72;;;14.48;71.34
67517;BME280;68821;59.134;37.894;2023-05-23T02:00:33;100680.41;;;14.49;71.47
67517;BME280;68821;59.134;37.894;2023-05-23T02:02:59;100683.88;;;14.48;72.00
67517;BME280;68821;59.134;37.894;2023-05-23T02:05:26;100686.44;;;14.45;71.64
67517;BME280;68821;59.134;37.894;2023-05-23T02:07:52;100685.56;;;14.43;72.16
67517;BME280;68821;59.134;37.894;2023-05-23T02:10:18;100678.69;;;14.46;72.13
67517;BME280;68821;59.134;37.894;2023-05-23T02:12:47;100677.81;;;14.44;72.20
67517;BME280;68821;59.134;37.894;2023-05-23T02:15:13;100689.88;;;14.47;72.30
67517;BME280;68821;59.134;37.894;2023-05-23T02:17:39;100686.47;;;14.48;72.16
67517;BME280;68821;59.134;37.894;2023-05-23T02:20:06;100684.72;;;14.48;72.42
67517;BME280;68821;59.134;37.894;2023-05-23T02:22:33;100675.25;;;14.46;72.52
67517;BME280;68821;59.134;37.894;2023-05-23T02:24:59;100676.97;;;14.48;72.64
67517;BME280;68821;59.134;37.894;2023-05-23T02:27:25;100674.38;;;14.48;71.96
67517;BME280;68821;59.134;37.894;2023-05-23T02:29:51;100682.16;;;14.48;72.19
67517;BME280;68821;59.134;37.894;2023-05-23T02:32:17;100679.56;;;14.48;72.31
67517;BME280;68821;59.134;37.894;2023-05-23T02:34:43;100679.56;;;14.50;72.32
67517;BME280;68821;59.134;37.894;2023-05-23T02:37:13;100677.84;;;14.52;72.24
67517;BME280;68821;59.134;37.894;2023-05-23T02:39:39;100676.16;;;14.54;72.25
67517;BME280;68821;59.134;37.894;2023-05-23T02:42:05;100669.25;;;14.55;72.51
67517;BME280;68821;59.134;37.894;2023-05-23T02:44:32;100678.78;;;14.59;72.29
67517;BME280;68821;59.134;37.894;2023-05-23T02:46:58;100677.97;;;14.64;72.26
67517;BME280;68821;59.134;37.894;2023-05-23T02:49:24;100679.69;;;14.72;72.39
67517;BME280;68821;59.134;37.894;2023-05-23T02:51:51;100674.56;;;14.79;72.44
67517;BME280;68821;59.134;37.894;2023-05-23T02:54:17;100678.03;;;14.91;72.23
67517;BME280;68821;59.134;37.894;2023-05-23T02:56:44;100674.66;;;15.02;71.90
67517;BME280;68821;59.134;37.894;2023-05-23T02:59:10;100673.84;;;15.14;72.00
67517;BME280;68821;59.134;37.894;2023-05-23T03:01:37;100664.38;;;15.30;71.71
67517;BME280;68821;59.134;37.894;2023-05-23T03:04:03;100674.78;;;15.48;71.31
67517;BME280;68821;59.134;37.894;2023-05-23T03:06:29;100668.75;;;15.65;71.00
67517;BME280;68821;59.134;37.894;2023-05-23T03:08:57;100673.97;;;15.83;70.69
67517;BME280;68821;59.134;37.894;2023-05-23T03:11:23;100679.13;;;15.99;70.45
67517;BME280;68821;59.134;37.894;2023-05-23T03:13:49;100663.59;;;16.08;70.13
67517;BME280;68821;59.134;37.894;2023-05-23T03:16:15;100673.91;;;16.22;69.47
67517;BME280;68821;59.134;37.894;2023-05-23T03:18:41;100673.91;;;16.28;69.10
67517;BME280;68821;59.134;37.894;2023-05-23T03:21:07;100678.25;;;16.35;68.76
67517;BME280;68821;59.134;37.894;2023-05-23T03:23:34;100668.72;;;16.37;68.58
67517;BME280;68821;59.134;37.894;2023-05-23T03:26:01;100664.38;;;16.39;68.21
67517;BME280;68821;59.134;37.894;2023-05-23T03:28:30;100673.03;;;16.41;67.86
67517;BME280;68821;59.134;37.894;2023-05-23T03:30:57;100662.66;;;16.41;67.45
67517;BME280;68821;59.134;37.894;2023-05-23T03:33:23;100661.78;;;16.45;67.19
67517;BME280;68821;59.134;37.894;2023-05-23T03:35:50;100657.44;;;16.47;67.37
67517;BME280;68821;59.134;37.894;2023-05-23T03:38:16;100651.38;;;16.53;67.08
67517;BME280;68821;59.134;37.894;2023-05-23T03:40:42;100647.03;;;16.60;66.93
67517;BME280;68821;59.134;37.894;2023-05-23T03:43:08;100653.91;;;16.70;66.75
67517;BME280;68821;59.134;37.894;2023-05-23T03:45:34;100657.34;;;16.80;66.49
67517;BME280;68821;59.134;37.894;2023-05-23T03:48:00;100652.13;;;16.89;66.08
67517;BME280;68821;59.134;37.894;2023-05-23T03:50:26;100655.53;;;17.00;65.71
67517;BME280;68821;59.134;37.894;2023-05-23T03:52:53;100650.31;;;17.05;65.29
67517;BME280;68821;59.134;37.894;2023-05-23T03:55:20;100645.94;;;17.15;65.14
67517;BME280;68821;59.134;37.894;2023-05-23T03:57:50;100645.06;;;17.19;64.96
67517;BME280;68821;59.134;37.894;2023-05-23T04:00:17;100639.81;;;17.20;64.56
67517;BME280;68821;59.134;37.894;2023-05-23T04:02:44;100643.31;;;17.19;64.63
67517;BME280;68821;59.134;37.894;2023-05-23T04:05:14;100642.44;;;17.19;64.56
67517;BME280;68821;59.134;37.894;2023-05-23T04:07:41;100634.63;;;17.20;64.66
67517;BME280;68821;59.134;37.894;2023-05-23T04:10:08;100644.13;;;17.24;64.57
67517;BME280;68821;59.134;37.894;2023-05-23T04:12:34;100633.72;;;17.29;64.53
67517;BME280;68821;59.134;37.894;2023-05-23T04:15:01;100600.03;;;17.15;64.18
67517;BME280;68821;59.134;37.894;2023-05-23T04:17:27;100625.03;;;17.32;64.11
67517;BME280;68821;59.134;37.894;2023-05-23T04:19:56;100607.75;;;17.27;63.99
67517;BME280;68821;59.134;37.894;2023-05-23T04:22:22;100628.41;;;17.47;63.82
67517;BME280;68821;59.134;37.894;2023-05-23T04:24:48;100620.56;;;17.50;63.81
67517;BME280;68821;59.134;37.894;2023-05-23T04:27:14;100625.72;;;17.58;63.04
67517;BME280;68821;59.134;37.894;2023-05-23T04:29:41;100627.34;;;17.68;63.03
67517;BME280;68821;59.134;37.894;2023-05-23T04:32:09;100626.41;;;17.79;62.69
67517;BME280;68821;59.134;37.894;2023-05-23T04:34:36;100633.28;;;17.86;62.19
67517;BME280;68821;59.134;37.894;2023-05-23T04:37:02;100633.22;;;17.94;61.97
67517;BME280;68821;59.134;37.894;2023-05-23T04:39:30;100627.97;;;17.98;61.91
67517;BME280;68821;59.134;37.894;2023-05-23T04:41:56;100625.31;;;18.04;61.34
67517;BME280;68821;59.134;37.894;2023-05-23T04:44:22;100614.09;;;18.01;60.95
67517;BME280;68821;59.134;37.894;2023-05-23T04:46:48;100612.25;;;18.12;60.94
67517;BME280;68821;59.134;37.894;2023-05-23T04:49:15;100619.06;;;18.24;60.74
67517;BME280;68821;59.134;37.894;2023-05-23T04:51:42;100609.50;;;18.26;60.57
67517;BME280;68821;59.134;37.894;2023-05-23T04:54:08;100618.94;;;18.35;60.38
67517;BME280;68821;59.134;37.894;2023-05-23T04:56:34;100617.97;;;18.43;60.20
67517;BME280;68821;59.134;37.894;2023-05-23T04:59:00;100613.41;;;18.61;60.11
67517;BME280;68821;59.134;37.894;2023-05-23T05:01:26;100620.94;;;18.87;59.82
67517;BME280;68821;59.134;37.894;2023-05-23T05:03:53;100623.16;;;19.13;58.96
67517;BME280;68821;59.134;37.894;2023-05-23T05:06:19;100616.81;;;19.33;58.21
67517;BME280;68821;59.134;37.894;2023-05-23T05:08:46;100624.34;;;19.49;57.51
67517;BME280;68821;59.134;37.894;2023-05-23T05:11:12;100619.84;;;19.61;57.50
67517;BME280;68821;59.134;37.894;2023-05-23T05:13:38;100614.44;;;19.73;57.23
67517;BME280;68821;59.134;37.894;2023-05-23T05:16:05;100616.00;;;19.83;56.41
67517;BME280;68821;59.134;37.894;2023-05-23T05:18:31;100618.41;;;19.96;56.15
67517;BME280;68821;59.134;37.894;2023-05-23T05:20:57;100615.50;;;20.11;56.13
67517;BME280;68821;59.134;37.894;2023-05-23T05:23:25;100608.25;;;20.25;55.84
67517;BME280;68821;59.134;37.894;2023-05-23T05:25:53;100613.25;;;20.38;55.44
67517;BME280;68821;59.134;37.894;2023-05-23T05:28:21;100615.63;;;20.50;55.40
67517;BME280;68821;59.134;37.894;2023-05-23T05:30:48;100611.13;;;20.57;54.84
67517;BME280;68821;59.134;37.894;2023-05-23T05:33:22;100610.19;;;20.61;54.74
67517;BME280;68821;59.134;37.894;2023-05-23T05:35:53;100604.97;;;20.61;54.65
67517;BME280;68821;59.134;37.894;2023-05-23T05:38:19;100604.16;;;20.57;54.53
67517;BME280;68821;59.134;37.894;2023-05-23T05:40:45;100609.38;;;20.57;54.59
67517;BME280;68821;59.134;37.894;2023-05-23T05:43:11;100607.56;;;20.61;55.29
67517;BME280;68821;59.134;37.894;2023-05-23T05:45:37;100605.78;;;20.64;54.76
67517;BME280;68821;59.134;37.894;2023-05-23T05:48:07;100606.56;;;20.68;54.75
67517;BME280;68821;59.134;37.894;2023-05-23T05:50:33;100610.84;;;20.72;54.64
67517;BME280;68821;59.134;37.894;2023-05-23T05:53:00;100615.16;;;20.73;54.75
67517;BME280;68821;59.134;37.894;2023-05-23T05:55:26;100616.06;;;20.72;54.69
67517;BME280;68821;59.134;37.894;2023-05-23T05:57:52;100600.53;;;20.66;54.76
67517;BME280;68821;59.134;37.894;2023-05-23T06:00:19;100607.50;;;20.65;54.92
67517;BME280;68821;59.134;37.894;2023-05-23T06:02:45;100606.69;;;20.62;55.55
67517;BME280;68821;59.134;37.894;2023-05-23T06:05:16;100598.97;;;20.56;55.39
67517;BME280;68821;59.134;37.894;2023-05-23T06:07:42;100607.81;;;20.48;55.37
67517;BME280;68821;59.134;37.894;2023-05-23T06:10:09;100606.19;;;20.43;55.76
67517;BME280;68821;59.134;37.894;2023-05-23T06:12:38;100612.25;;;20.45;55.72
67517;BME280;68821;59.134;37.894;2023-05-23T06:15:06;100619.91;;;20.53;55.31
67517;BME280;68821;59.134;37.894;2023-05-23T06:17:32;100610.19;;;20.61;55.00
67517;BME280;68821;59.134;37.894;2023-05-23T06:19:58;100608.09;;;20.78;55.17
67517;BME280;68821;59.134;37.894;2023-05-23T06:22:24;100610.34;;;20.95;55.24
67517;BME280;68821;59.134;37.894;2023-05-23T06:24:51;100603.84;;;21.12;54.09
67517;BME280;68821;59.134;37.894;2023-05-23T06:27:17;100598.38;;;21.22;53.38
67517;BME280;68821;59.134;37.894;2023-05-23T06:29:43;100596.28;;;21.37;52.35
67517;BME280;68821;59.134;37.894;2023-05-23T06:32:09;100602.88;;;21.55;51.32
67517;BME280;68821;59.134;37.894;2023-05-23T06:34:35;100591.38;;;21.62;50.99
67517;BME280;68821;59.134;37.894;2023-05-23T06:37:02;100601.44;;;21.76;50.28
67517;BME280;68821;59.134;37.894;2023-05-23T06:39:28;100598.56;;;21.86;50.23
67517;BME280;68821;59.134;37.894;2023-05-23T06:41:54;100594.69;;;22.01;49.56
67517;BME280;68821;59.134;37.894;2023-05-23T06:44:21;100592.50;;;22.17;48.83
67517;BME280;68821;59.134;37.894;2023-05-23T06:46:47;100584.22;;;22.34;48.12
67517;BME280;68821;59.134;37.894;2023-05-23T06:49:14;100588.78;;;22.57;47.45
67517;BME280;68821;59.134;37.894;2023-05-23T06:51:40;100594.25;;;22.79;47.16
67517;BME280;68821;59.134;37.894;2023-05-23T06:54:06;100591.09;;;22.96;47.01
67517;BME280;68821;59.134;37.894;2023-05-23T06:56:32;100587.22;;;23.09;46.48
67517;BME280;68821;59.134;37.894;2023-05-23T06:58:58;100590.31;;;23.22;46.06
67517;BME280;68821;59.134;37.894;2023-05-23T07:01:25;100589.91;;;23.35;46.13
67517;BME280;68821;59.134;37.894;2023-05-23T07:03:51;100593.78;;;23.49;45.51
67517;BME280;68821;59.134;37.894;2023-05-23T07:06:17;100585.63;;;23.59;45.63
67517;BME280;68821;59.134;37.894;2023-05-23T07:08:44;100583.81;;;23.61;45.33
67517;BME280;68821;59.134;37.894;2023-05-23T07:11:11;100572.91;;;23.46;45.43
67517;BME280;68821;59.134;37.894;2023-05-23T07:13:37;100580.03;;;23.43;45.54
67517;BME280;68821;59.134;37.894;2023-05-23T07:16:04;100576.44;;;23.45;45.62
67517;BME280;68821;59.134;37.894;2023-05-23T07:18:30;100568.06;;;23.61;46.60
67517;BME280;68821;59.134;37.894;2023-05-23T07:20:56;100552.81;;;23.70;45.68
67517;BME280;68821;59.134;37.894;2023-05-23T07:23:22;100569.44;;;23.98;45.60
67517;BME280;68821;59.134;37.894;2023-05-23T07:25:49;100572.47;;;24.10;46.27
67517;BME280;68821;59.134;37.894;2023-05-23T07:28:15;100575.72;;;24.17;45.48
67517;BME280;68821;59.134;37.894;2023-05-23T07:30:41;100575.75;;;24.16;45.21
67517;BME280;68821;59.134;37.894;2023-05-23T07:33:07;100572.41;;;24.12;44.95
67517;BME280;68821;59.134;37.894;2023-05-23T07:35:33;100572.41;;;24.12;44.97
67517;BME280;68821;59.134;37.894;2023-05-23T07:38:00;100574.06;;;24.15;44.85
67517;BME280;68821;59.134;37.894;2023-05-23T07:40:26;100573.94;;;24.18;44.90
67517;BME280;68821;59.134;37.894;2023-05-23T07:42:52;100576.41;;;24.22;44.47
67517;BME280;68821;59.134;37.894;2023-05-23T07:45:18;100571.03;;;24.25;44.97
67517;BME280;68821;59.134;37.894;2023-05-23T07:47:45;100574.47;;;24.27;44.23
67517;BME280;68821;59.134;37.894;2023-05-23T07:50:11;100575.22;;;24.31;44.06
67517;BME280;68821;59.134;37.894;2023-05-23T07:52:37;100565.69;;;24.28;43.85
67517;BME280;68821;59.134;37.894;2023-05-23T07:55:04;100574.13;;;24.37;42.79
67517;BME280;68821;59.134;37.894;2023-05-23T07:57:30;100568.81;;;24.38;43.84
67517;BME280;68821;59.134;37.894;2023-05-23T07:59:56;100551.56;;;24.31;43.17
67517;BME280;68821;59.134;37.894;2023-05-23T08:02:22;100563.44;;;24.41;43.04
67517;BME280;68821;59.134;37.894;2023-05-23T08:04:48;100560.59;;;24.47;42.02
67517;BME280;68821;59.134;37.894;2023-05-23T08:07:15;100561.13;;;24.57;42.57
67517;BME280;68821;59.134;37.894;2023-05-23T08:09:42;100561.06;;;24.59;42.02
67517;BME280;68821;59.134;37.894;2023-05-23T08:12:08;100558.94;;;24.68;41.78
67517;BME280;68821;59.134;37.894;2023-05-23T08:14:34;100559.53;;;24.75;42.43
67517;BME280;68821;59.134;37.894;2023-05-23T08:17:01;100550.00;;;24.73;41.91
67517;BME280;68821;59.134;37.894;2023-05-23T08:19:28;100558.50;;;24.79;41.62
67517;BME280;68821;59.134;37.894;2023-05-23T08:21:54;100554.91;;;24.82;41.24
67517;BME280;68821;59.134;37.894;2023-05-23T08:24:20;100551.91;;;24.91;40.36
67517;BME280;68821;59.134;37.894;2023-05-23T08:26:47;100553.44;;;24.97;39.83
67517;BME280;68821;59.134;37.894;2023-05-23T08:29:13;100555.09;;;24.99;39.78
67517;BME280;68821;59.134;37.894;2023-05-23T08:31:39;100559.19;;;25.06;40.31
67517;BME280;68821;59.134;37.894;2023-05-23T08:34:06;100554.59;;;25.12;39.78
67517;BME280;68821;59.134;37.894;2023-05-23T08:36:32;100566.59;;;25.19;39.58
67517;BME280;68821;59.134;37.894;2023-05-23T08:39:01;100560.97;;;25.28;38.99
67517;BME280;68821;59.134;37.894;2023-05-23T08:41:28;100562.56;;;25.32;39.30
67517;BME280;68821;59.134;37.894;2023-05-23T08:44:03;100569.66;;;25.30;38.82
67517;BME280;68821;59.134;37.894;2023-05-23T08:46:30;100555.75;;;25.26;38.21
67517;BME280;68821;59.134;37.894;2023-05-23T08:48:58;100538.75;;;25.13;38.13
67517;BME280;68821;59.134;37.894;2023-05-23T08:51:26;100557.75;;;25.20;38.17
67517;BME280;68821;59.134;37.894;2023-05-23T08:53:53;100538.06;;;25.08;38.13
67517;BME280;68821;59.134;37.894;2023-05-23T08:56:22;100556.69;;;25.25;38.07
67517;BME280;68821;59.134;37.894;2023-05-23T08:58:51;100548.28;;;25.38;37.78
67517;BME280;68821;59.134;37.894;2023-05-23T09:01:19;100555.66;;;25.50;37.52
67517;BME280;68821;59.134;37.894;2023-05-23T09:03:46;100548.41;;;25.55;37.82
67517;BME280;68821;59.134;37.894;2023-05-23T09:06:15;100540.97;;;25.65;37.49
67517;BME280;68821;59.134;37.894;2023-05-23T09:08:43;100547.19;;;25.84;36.95
67517;BME280;68821;59.134;37.894;2023-05-23T09:11:11;100546.31;;;26.04;36.87
67517;BME280;68821;59.134;37.894;2023-05-23T09:13:38;100552.47;;;26.24;36.04
67517;BME280;68821;59.134;37.894;2023-05-23T09:16:08;100550.13;;;26.37;36.09
67517;BME280;68821;59.134;37.894;2023-05-23T09:18:39;100541.06;;;26.42;35.35
67517;BME280;68821;59.134;37.894;2023-05-23T09:21:08;100551.47;;;26.45;35.11
67517;BME280;68821;59.134;37.894;2023-05-23T09:23:35;100543.78;;;26.41;34.66
67517;BME280;68821;59.134;37.894;2023-05-23T09:26:09;100544.44;;;26.46;35.57
67517;BME280;68821;59.134;37.894;2023-05-23T09:28:37;100549.41;;;26.52;35.27
67517;BME280;68821;59.134;37.894;2023-05-23T09:31:05;100549.00;;;26.61;35.79
67517;BME280;68821;59.134;37.894;2023-05-23T09:33:49;100539.88;;;26.68;35.35
67517;BME280;68821;59.134;37.894;2023-05-23T09:36:16;100545.97;;;26.88;35.59
67517;BME280;68821;59.134;37.894;2023-05-23T09:38:45;100546.63;;;27.10;34.72
67517;BME280;68821;59.134;37.894;2023-05-23T09:41:12;100545.31;;;27.19;34.55
67517;BME280;68821;59.134;37.894;2023-05-23T09:43:53;100550.59;;;27.38;34.17
67517;BME280;68821;59.134;37.894;2023-05-23T09:46:20;100540.06;;;27.54;34.40
67517;BME280;68821;59.134;37.894;2023-05-23T09:48:48;100543.81;;;27.67;33.70
67517;BME280;68821;59.134;37.894;2023-05-23T09:51:18;100560.19;;;27.74;33.79
67517;BME280;68821;59.134;37.894;2023-05-23T09:53:46;100555.28;;;27.66;33.93
67517;BME280;68821;59.134;37.894;2023-05-23T09:56:12;100554.47;;;27.48;34.72
67517;BME280;68821;59.134;37.894;2023-05-23T09:58:45;100563.66;;;27.22;34.98
67517;BME280;68821;59.134;37.894;2023-05-23T10:01:12;100565.28;;;26.88;35.80
67517;BME280;68821;59.134;37.894;2023-05-23T10:03:48;100559.31;;;26.66;36.58
67517;BME280;68821;59.134;37.894;2023-05-23T10:06:22;100563.44;;;26.53;36.80
67517;BME280;68821;59.134;37.894;2023-05-23T10:08:58;100565.81;;;26.40;36.84
67517;BME280;68821;59.134;37.894;2023-05-23T10:14:01;100562.84;;;26.08;37.10
67517;BME280;68821;59.134;37.894;2023-05-23T10:16:43;100567.06;;;25.92;37.04
67517;BME280;68821;59.134;37.894;2023-05-23T10:19:24;100573.78;;;25.78;37.57
67517;BME280;68821;59.134;37.894;2023-05-23T10:21:57;100565.34;;;25.70;37.89
67517;BME280;68821;59.134;37.894;2023-05-23T10:24:24;100574.91;;;25.73;37.29
67517;BME280;68821;59.134;37.894;2023-05-23T10:26:53;100567.63;;;25.78;37.39
67517;BME280;68821;59.134;37.894;2023-05-23T10:29:21;100568.16;;;25.86;36.80
67517;BME280;68821;59.134;37.894;2023-05-23T10:31:49;100561.47;;;25.99;37.44
67517;BME280;68821;59.134;37.894;2023-05-23T10:34:36;100562.34;;;26.19;37.18
67517;BME280;68821;59.134;37.894;2023-05-23T10:37:06;100561.44;;;26.39;36.37
67517;BME280;68821;59.134;37.894;2023-05-23T10:42:27;100561.44;;;26.39;36.79
67517;BME280;68821;59.134;37.894;2023-05-23T10:45:15;100556.50;;;26.31;37.02
67517;BME280;68821;59.134;37.894;2023-05-23T10:47:41;100552.88;;;26.15;36.91
67517;BME280;68821;59.134;37.894;2023-05-23T10:50:11;100554.94;;;26.08;37.42
67517;BME280;68821;59.134;37.894;2023-05-23T10:52:39;100551.56;;;26.04;37.45
67517;BME280;68821;59.134;37.894;2023-05-23T10:55:15;100536.41;;;25.91;37.05
67517;BME280;68821;59.134;37.894;2023-05-23T10:57:44;100551.84;;;25.78;37.64
67517;BME280;68821;59.134;37.894;2023-05-23T11:00:15;100544.72;;;25.59;38.05
67517;BME280;68821;59.134;37.894;2023-05-23T11:03:07;100550.06;;;25.37;38.07
67517;BME280;68821;59.134;37.894;2023-05-23T11:05:33;100556.91;;;25.21;39.02
67517;BME280;68821;59.134;37.894;2023-05-23T11:08:10;100556.63;;;25.05;39.43
67517;BME280;68821;59.134;37.894;2023-05-23T11:13:24;100564.13;;;24.70;39.83
67517;BME280;68821;59.134;37.894;2023-05-23T11:15:53;100576.16;;;24.54;39.87
67517;BME280;68821;59.134;37.894;2023-05-23T11:18:26;100568.88;;;24.37;40.16
67517;BME280;68821;59.134;37.894;2023-05-23T11:20:53;100564.72;;;24.31;40.72
67517;BME280;68821;59.134;37.894;2023-05-23T11:23:20;100563.16;;;24.25;40.82
67517;BME280;68821;59.134;37.894;2023-05-23T11:25:51;100562.19;;;24.28;40.76
67517;BME280;68821;59.134;37.894;2023-05-23T11:28:18;100560.13;;;24.36;41.18
67517;BME280;68821;59.134;37.894;2023-05-23T11:30:48;100560.53;;;24.49;40.90
67517;BME280;68821;59.134;37.894;2023-05-23T11:33:15;100555.63;;;24.63;40.58
67517;BME280;68821;59.134;37.894;2023-05-23T11:35:43;100555.53;;;24.88;41.12
67517;BME280;68821;59.134;37.894;2023-05-23T11:38:09;100548.81;;;25.25;40.57
67517;BME280;68821;59.134;37.894;2023-05-23T11:40:41;100545.00;;;25.74;39.85
67517;BME280;68821;59.134;37.894;2023-05-23T11:43:09;100541.19;;;26.20;39.49
67517;BME280;68821;59.134;37.894;2023-05-23T11:45:36;100544.28;;;26.49;38.74
67517;BME280;68821;59.134;37.894;2023-05-23T11:48:15;100546.84;;;26.50;38.82
67517;BME280;68821;59.134;37.894;2023-05-23T11:50:49;100560.03;;;26.32;38.85
67517;BME280;68821;59.134;37.894;2023-05-23T11:53:17;100551.78;;;26.00;38.82
67517;BME280;68821;59.134;37.894;2023-05-23T11:55:53;100567.06;;;25.71;40.01
67517;BME280;68821;59.134;37.894;2023-05-23T11:58:29;100561.44;;;25.38;39.80
67517;BME280;68821;59.134;37.894;2023-05-23T12:01:03;100551.31;;;25.06;40.75
67517;BME280;68821;59.134;37.894;2023-05-23T12:03:29;100549.66;;;24.82;41.42
67517;BME280;68821;59.134;37.894;2023-05-23T12:05:56;100539.91;;;24.62;41.45
67517;BME280;68821;59.134;37.894;2023-05-23T12:08:22;100533.44;;;24.47;41.75
67517;BME280;68821;59.134;37.894;2023-05-23T12:10:55;100529.69;;;24.30;41.73
67517;BME280;68821;59.134;37.894;2023-05-23T12:13:27;100523.31;;;24.14;42.73
67517;BME280;68821;59.134;37.894;2023-05-23T12:16:00;100521.13;;;24.02;42.99
67517;BME280;68821;59.134;37.894;2023-05-23T12:18:27;100522.25;;;23.95;43.31
67517;BME280;68821;59.134;37.894;2023-05-23T12:20:54;100524.28;;;23.86;43.05
67517;BME280;68821;59.134;37.894;2023-05-23T12:23:21;100518.50;;;23.77;43.13
67517;BME280;68821;59.134;37.894;2023-05-23T12:25:55;100523.84;;;23.74;43.18
67517;BME280;68821;59.134;37.894;2023-05-23T12:28:34;100514.19;;;23.74;43.30
67517;BME280;68821;59.134;37.894;2023-05-23T12:31:30;100512.38;;;23.76;43.33
67517;BME280;68821;59.134;37.894;2023-05-23T12:33:57;100506.25;;;23.77;43.36
67517;BME280;68821;59.134;37.894;2023-05-23T12:36:25;100504.47;;;23.78;43.20
67517;BME280;68821;59.134;37.894;2023-05-23T12:38:52;100498.41;;;23.76;43.29
67517;BME280;68821;59.134;37.894;2023-05-23T12:41:18;100498.50;;;23.73;43.14
67517;BME280;68821;59.134;37.894;2023-05-23T12:43:52;100497.88;;;23.66;43.52
67517;BME280;68821;59.134;37.894;2023-05-23T12:46:23;100491.28;;;23.54;43.49
67517;BME280;68821;59.134;37.894;2023-05-23T12:48:49;100495.09;;;23.45;43.97
67517;BME280;68821;59.134;37.894;2023-05-23T12:51:16;100495.28;;;23.39;44.37
67517;BME280;68821;59.134;37.894;2023-05-23T12:53:43;100493.72;;;23.34;44.86
67517;BME280;68821;59.134;37.894;2023-05-23T12:56:10;100490.38;;;23.30;44.84
67517;BME280;68821;59.134;37.894;2023-05-23T12:58:36;100484.41;;;23.25;45.33
67517;BME280;68821;59.134;37.894;2023-05-23T13:01:02;100488.84;;;23.23;44.66